sensor_id;sensor_type;location;lat;lon;timestamp;temperature;humidity
15717;DHT22;7960;50.908;4.204;2023-09-07T00:01:57;21.60;99.90
15717;DHT22;7960;50.908;4.204;2023-09-07T00:04:23;21.60;99.90
15717;DHT22;7960;50.908;4.204;2023-09-07T00:06:52;21.60;99.90
15717;DHT22;7960;50.908;4.204;2023-09-07T00:09:19;21.40;99.90
15717;DHT22;7960;50.908;4.204;2023-09-07T00:11:47;21.40;99.90
15717;DHT22;7960;50.908;4.204;2023-09-07T00:14:14;21.40;99.90
15717;DHT22;7960;50.908;4.204;2023-09-07T00:16:41;21.20;99.90
15717;DHT22;7960;50.908;4.204;2023-09-07T00:19:08;21.10;99.90
15717;DHT22;7960;50.908;4.204;2023-09-07T00:21:35;21.00;99.90
15717;DHT22;7960;50.908;4.204;2023-09-07T00:24:04;21.00;99.90
15717;DHT22;7960;50.908;4.204;2023-09-07T00:26:32;20.90;99.90
15717;DHT22;7960;50.908;4.204;2023-09-07T00:28:59;20.90;99.90
15717;DHT22;7960;50.908;4.204;2023-09-07T00:31:26;20.80;99.90
15717;DHT22;7960;50.908;4.204;2023-09-07T00:33:52;20.80;99.90
15717;DHT22;7960;50.908;4.204;2023-09-07T00:36:21;20.80;99.90
15717;DHT22;7960;50.908;4.204;2023-09-07T00:38:48;20.70;99.90
15717;DHT22;7960;50.908;4.204;2023-09-07T00:41:16;20.80;99.90
15717;DHT22;7960;50.908;4.204;2023-09-07T00:43:43;20.80;99.90
15717;DHT22;7960;50.908;4.204;2023-09-07T00:46:10;20.70;99.90
15717;DHT22;7960;50.908;4.204;2023-09-07T00:48:38;20.80;99.90
15717;DHT22;7960;50.908;4.204;2023-09-07T00:51:05;20.70;99.90
15717;DHT22;7960;50.908;4.204;2023-09-07T00:53:32;20.70;99.90
15717;DHT22;7960;50.908;4.204;2023-09-07T00:55:59;20.60;99.90
15717;DHT22;7960;50.908;4.204;2023-09-07T00:58:27;20.60;99.90
15717;DHT22;7960;50.908;4.204;2023-09-07T01:00:55;20.70;99.90
15717;DHT22;7960;50.908;4.204;2023-09-07T01:03:22;20.80;99.90
15717;DHT22;7960;50.908;4.204;2023-09-07T01:05:56;20.90;99.90
15717;DHT22;7960;50.908;4.204;2023-09-07T01:08:28;21.00;99.90
15717;DHT22;7960;50.908;4.204;2023-09-07T01:10:55;21.10;99.90
15717;DHT22;7960;50.908;4.204;2023-09-07T01:13:22;21.10;99.90
15717;DHT22;7960;50.908;4.204;2023-09-07T01:15:50;21.30;99.90
15717;DHT22;7960;50.908;4.204;2023-09-07T01:18:19;21.30;99.90
15717;DHT22;7960;50.908;4.204;2023-09-07T01:20:47;21.30;99.90
15717;DHT22;7960;50.908;4.204;2023-09-07T01:23:16;21.20;99.90
15717;DHT22;7960;50.908;4.204;2023-09-07T01:25:43;21.20;99.90
15717;DHT22;7960;50.908;4.204;2023-09-07T01:28:11;21.30;99.90
15717;DHT22;7960;50.908;4.204;2023-09-07T01:30:39;21.30;99.90
15717;DHT22;7960;50.908;4.204;2023-09-07T01:33:07;21.20;99.90
15717;DHT22;7960;50.908;4.204;2023-09-07T01:35:35;21.20;99.90
15717;DHT22;7960;50.908;4.204;2023-09-07T01:38:03;21.20;99.90
15717;DHT22;7960;50.908;4.204;2023-09-07T01:40:31;21.30;99.90
15717;DHT22;7960;50.908;4.204;2023-09-07T01:42:58;21.40;99.90
15717;DHT22;7960;50.908;4.204;2023-09-07T01:45:25;21.60;99.90
15717;DHT22;7960;50.908;4.204;2023-09-07T01:47:52;21.50;99.90
15717;DHT22;7960;50.908;4.204;2023-09-07T01:50:19;21.50;99.90
15717;DHT22;7960;50.908;4.204;2023-09-07T01:52:47;21.50;99.90
15717;DHT22;7960;50.908;4.204;2023-09-07T01:55:14;21.40;99.90
15717;DHT22;7960;50.908;4.204;2023-09-07T01:57:43;21.50;99.90
15717;DHT22;7960;50.908;4.204;2023-09-07T02:00:11;21.60;99.90
15717;DHT22;7960;50.908;4.204;2023-09-07T02:02:39;21.50;99.90
15717;DHT22;7960;50.908;4.204;2023-09-07T02:05:06;21.40;99.90
15717;DHT22;7960;50.908;4.204;2023-09-07T02:07:33;21.20;99.90
15717;DHT22;7960;50.908;4.204;2023-09-07T02:10:01;21.20;99.90
15717;DHT22;7960;50.908;4.204;2023-09-07T02:12:28;21.30;99.90
15717;DHT22;7960;50.908;4.204;2023-09-07T02:14:59;21.20;99.90
15717;DHT22;7960;50.908;4.204;2023-09-07T02:17:26;21.10;99.90
15717;DHT22;7960;50.908;4.204;2023-09-07T02:19:53;21.10;99.90
15717;DHT22;7960;50.908;4.204;2023-09-07T02:22:20;21.20;99.90
15717;DHT22;7960;50.908;4.204;2023-09-07T02:24:47;21.20;99.90
15717;DHT22;7960;50.908;4.204;2023-09-07T02:27:14;21.20;99.90
15717;DHT22;7960;50.908;4.204;2023-09-07T02:29:41;21.20;99.90
15717;DHT22;7960;50.908;4.204;2023-09-07T02:32:09;21.20;99.90
15717;DHT22;7960;50.908;4.204;2023-09-07T02:34:36;21.00;99.90
15717;DHT22;7960;50.908;4.204;2023-09-07T02:37:03;20.80;99.90
15717;DHT22;7960;50.908;4.204;2023-09-07T02:39:30;20.90;99.90
15717;DHT22;7960;50.908;4.204;2023-09-07T02:41:57;20.90;99.90
15717;DHT22;7960;50.908;4.204;2023-09-07T02:44:24;20.90;99.90
15717;DHT22;7960;50.908;4.204;2023-09-07T02:46:51;20.90;99.90
15717;DHT22;7960;50.908;4.204;2023-09-07T02:49:19;20.90;99.90
15717;DHT22;7960;50.908;4.204;2023-09-07T02:51:46;21.00;99.90
15717;DHT22;7960;50.908;4.204;2023-09-07T02:54:13;20.90;99.90
15717;DHT22;7960;50.908;4.204;2023-09-07T02:56:40;20.80;99.90
15717;DHT22;7960;50.908;4.204;2023-09-07T02:59:07;20.80;99.90
15717;DHT22;7960;50.908;4.204;2023-09-07T03:01:34;20.90;99.90
15717;DHT22;7960;50.908;4.204;2023-09-07T03:04:01;21.10;99.90
15717;DHT22;7960;50.908;4.204;2023-09-07T03:06:30;21.00;99.90
15717;DHT22;7960;50.908;4.204;2023-09-07T03:08:57;21.10;99.90
15717;DHT22;7960;50.908;4.204;2023-09-07T03:11:25;21.20;99.90
15717;DHT22;7960;50.908;4.204;2023-09-07T03:13:52;21.10;99.90
15717;DHT22;7960;50.908;4.204;2023-09-07T03:16:19;21.00;99.90
15717;DHT22;7960;50.908;4.204;2023-09-07T03:18:46;20.70;99.90
15717;DHT22;7960;50.908;4.204;2023-09-07T03:21:13;20.60;99.90
15717;DHT22;7960;50.908;4.204;2023-09-07T03:23:41;20.50;99.90
15717;DHT22;7960;50.908;4.204;2023-09-07T03:26:10;20.70;99.90
15717;DHT22;7960;50.908;4.204;2023-09-07T03:28:37;20.80;99.90
15717;DHT22;7960;50.908;4.204;2023-09-07T03:31:03;20.60;99.90
15717;DHT22;7960;50.908;4.204;2023-09-07T03:33:31;20.70;99.90
15717;DHT22;7960;50.908;4.204;2023-09-07T03:35:58;20.70;99.90
15717;DHT22;7960;50.908;4.204;2023-09-07T03:38:25;20.80;99.90
15717;DHT22;7960;50.908;4.204;2023-09-07T03:40:54;20.80;99.90
15717;DHT22;7960;50.908;4.204;2023-09-07T03:43:21;20.70;99.90
15717;DHT22;7960;50.908;4.204;2023-09-07T03:45:48;20.70;99.90
15717;DHT22;7960;50.908;4.204;2023-09-07T03:48:15;20.70;99.90
15717;DHT22;7960;50.908;4.204;2023-09-07T03:50:42;20.70;99.90
15717;DHT22;7960;50.908;4.204;2023-09-07T03:53:09;20.70;99.90
15717;DHT22;7960;50.908;4.204;2023-09-07T03:55:40;20.60;99.90
15717;DHT22;7960;50.908;4.204;2023-09-07T03:58:10;20.50;99.90
15717;DHT22;7960;50.908;4.204;2023-09-07T04:00:38;20.20;99.90
15717;DHT22;7960;50.908;4.204;2023-09-07T04:03:06;20.10;99.90
15717;DHT22;7960;50.908;4.204;2023-09-07T04:05:33;20.30;99.90
15717;DHT22;7960;50.908;4.204;2023-09-07T04:08:00;20.30;99.90
15717;DHT22;7960;50.908;4.204;2023-09-07T04:10:28;20.40;99.90
15717;DHT22;7960;50.908;4.204;2023-09-07T04:12:55;20.40;99.90
15717;DHT22;7960;50.908;4.204;2023-09-07T04:15:23;20.40;99.90
15717;DHT22;7960;50.908;4.204;2023-09-07T04:17:51;20.40;99.90
15717;DHT22;7960;50.908;4.204;2023-09-07T04:20:20;20.40;99.90
15717;DHT22;7960;50.908;4.204;2023-09-07T04:22:47;20.40;99.90
15717;DHT22;7960;50.908;4.204;2023-09-07T04:25:14;20.30;99.90
15717;DHT22;7960;50.908;4.204;2023-09-07T04:27:41;20.30;99.90
15717;DHT22;7960;50.908;4.204;2023-09-07T04:30:09;20.30;99.90
15717;DHT22;7960;50.908;4.204;2023-09-07T04:32:37;20.30;99.90
15717;DHT22;7960;50.908;4.204;2023-09-07T04:35:05;20.40;99.90
15717;DHT22;7960;50.908;4.204;2023-09-07T04:37:32;20.50;99.90
15717;DHT22;7960;50.908;4.204;2023-09-07T04:39:59;20.20;99.90
15717;DHT22;7960;50.908;4.204;2023-09-07T04:42:27;19.90;99.90
15717;DHT22;7960;50.908;4.204;2023-09-07T04:44:54;20.00;99.90
15717;DHT22;7960;50.908;4.204;2023-09-07T04:47:21;20.10;99.90
15717;DHT22;7960;50.908;4.204;2023-09-07T04:49:50;20.10;99.90
15717;DHT22;7960;50.908;4.204;2023-09-07T04:52:17;20.20;99.90
15717;DHT22;7960;50.908;4.204;2023-09-07T04:54:44;20.20;99.90
15717;DHT22;7960;50.908;4.204;2023-09-07T04:57:13;20.00;99.90
15717;DHT22;7960;50.908;4.204;2023-09-07T04:59:40;20.00;99.90
15717;DHT22;7960;50.908;4.204;2023-09-07T05:02:07;20.00;99.90
15717;DHT22;7960;50.908;4.204;2023-09-07T05:04:34;19.80;99.90
15717;DHT22;7960;50.908;4.204;2023-09-07T05:07:02;19.80;99.90
15717;DHT22;7960;50.908;4.204;2023-09-07T05:09:29;19.80;99.90
15717;DHT22;7960;50.908;4.204;2023-09-07T05:11:56;19.70;99.90
15717;DHT22;7960;50.908;4.204;2023-09-07T05:14:23;19.70;99.90
15717;DHT22;7960;50.908;4.204;2023-09-07T05:16:50;19.40;99.90
15717;DHT22;7960;50.908;4.204;2023-09-07T05:19:18;19.30;99.90
15717;DHT22;7960;50.908;4.204;2023-09-07T05:21:45;19.40;99.90
15717;DHT22;7960;50.908;4.204;2023-09-07T05:24:14;19.60;99.90
15717;DHT22;7960;50.908;4.204;2023-09-07T05:26:42;19.40;99.90
15717;DHT22;7960;50.908;4.204;2023-09-07T05:29:09;19.30;99.90
15717;DHT22;7960;50.908;4.204;2023-09-07T05:31:35;19.20;99.90
15717;DHT22;7960;50.908;4.204;2023-09-07T05:34:03;19.50;99.90
15717;DHT22;7960;50.908;4.204;2023-09-07T05:36:30;19.60;99.90
15717;DHT22;7960;50.908;4.204;2023-09-07T05:38:57;19.50;99.90
15717;DHT22;7960;50.908;4.204;2023-09-07T05:41:26;19.50;99.90
15717;DHT22;7960;50.908;4.204;2023-09-07T05:43:53;19.60;99.90
15717;DHT22;7960;50.908;4.204;2023-09-07T05:46:21;19.50;99.90
15717;DHT22;7960;50.908;4.204;2023-09-07T05:48:48;19.60;99.90
15717;DHT22;7960;50.908;4.204;2023-09-07T05:51:15;19.70;99.90
15717;DHT22;7960;50.908;4.204;2023-09-07T05:53:42;19.80;99.90
15717;DHT22;7960;50.908;4.204;2023-09-07T05:56:09;19.80;99.90
15717;DHT22;7960;50.908;4.204;2023-09-07T05:58:37;19.70;99.90
15717;DHT22;7960;50.908;4.204;2023-09-07T06:01:04;19.80;99.90
15717;DHT22;7960;50.908;4.204;2023-09-07T06:03:31;19.90;99.90
15717;DHT22;7960;50.908;4.204;2023-09-07T06:06:00;19.90;99.90
15717;DHT22;7960;50.908;4.204;2023-09-07T06:08:28;19.90;99.90
15717;DHT22;7960;50.908;4.204;2023-09-07T06:10:55;20.00;99.90
15717;DHT22;7960;50.908;4.204;2023-09-07T06:13:22;20.20;99.90
15717;DHT22;7960;50.908;4.204;2023-09-07T06:15:50;20.20;99.90
15717;DHT22;7960;50.908;4.204;2023-09-07T06:18:17;20.20;99.90
15717;DHT22;7960;50.908;4.204;2023-09-07T06:20:44;20.10;99.90
15717;DHT22;7960;50.908;4.204;2023-09-07T06:23:12;20.20;99.90
15717;DHT22;7960;50.908;4.204;2023-09-07T06:25:39;20.20;99.90
15717;DHT22;7960;50.908;4.204;2023-09-07T06:28:06;20.40;99.90
15717;DHT22;7960;50.908;4.204;2023-09-07T06:30:33;20.40;99.90
15717;DHT22;7960;50.908;4.204;2023-09-07T06:33:01;20.30;99.90
15717;DHT22;7960;50.908;4.204;2023-09-07T06:35:28;20.50;99.90
15717;DHT22;7960;50.908;4.204;2023-09-07T06:37:55;20.60;99.90
15717;DHT22;7960;50.908;4.204;2023-09-07T06:40:22;20.70;99.90
15717;DHT22;7960;50.908;4.204;2023-09-07T06:42:51;20.70;99.90
15717;DHT22;7960;50.908;4.204;2023-09-07T06:45:18;20.70;99.90
15717;DHT22;7960;50.908;4.204;2023-09-07T06:47:45;20.70;99.90
15717;DHT22;7960;50.908;4.204;2023-09-07T06:50:13;20.80;99.90
15717;DHT22;7960;50.908;4.204;2023-09-07T06:52:40;21.00;99.90
15717;DHT22;7960;50.908;4.204;2023-09-07T06:55:07;21.10;99.90
15717;DHT22;7960;50.908;4.204;2023-09-07T06:57:34;21.20;99.90
15717;DHT22;7960;50.908;4.204;2023-09-07T07:00:02;21.30;99.90
15717;DHT22;7960;50.908;4.204;2023-09-07T07:02:31;21.40;99.90
15717;DHT22;7960;50.908;4.204;2023-09-07T07:04:58;21.30;99.90
15717;DHT22;7960;50.908;4.204;2023-09-07T07:07:26;21.40;99.90
15717;DHT22;7960;50.908;4.204;2023-09-07T07:09:53;21.50;99.90
15717;DHT22;7960;50.908;4.204;2023-09-07T07:12:20;21.60;99.90
15717;DHT22;7960;50.908;4.204;2023-09-07T07:14:47;21.70;99.90
15717;DHT22;7960;50.908;4.204;2023-09-07T07:17:14;21.70;99.90
15717;DHT22;7960;50.908;4.204;2023-09-07T07:19:41;21.80;99.90
15717;DHT22;7960;50.908;4.204;2023-09-07T07:22:08;21.80;99.90
15717;DHT22;7960;50.908;4.204;2023-09-07T07:24:37;21.80;99.90
15717;DHT22;7960;50.908;4.204;2023-09-07T07:27:04;21.90;99.90
15717;DHT22;7960;50.908;4.204;2023-09-07T07:29:30;21.90;99.90
15717;DHT22;7960;50.908;4.204;2023-09-07T07:31:57;22.00;99.90
15717;DHT22;7960;50.908;4.204;2023-09-07T07:34:25;22.10;99.90
15717;DHT22;7960;50.908;4.204;2023-09-07T07:36:51;22.20;99.90
15717;DHT22;7960;50.908;4.204;2023-09-07T07:39:18;22.20;99.90
15717;DHT22;7960;50.908;4.204;2023-09-07T07:41:47;22.20;99.90
15717;DHT22;7960;50.908;4.204;2023-09-07T07:44:14;22.40;99.90
15717;DHT22;7960;50.908;4.204;2023-09-07T07:46:41;22.50;99.90
15717;DHT22;7960;50.908;4.204;2023-09-07T07:49:08;22.60;99.90
15717;DHT22;7960;50.908;4.204;2023-09-07T07:51:36;22.60;99.90
15717;DHT22;7960;50.908;4.204;2023-09-07T07:54:03;22.60;99.90
15717;DHT22;7960;50.908;4.204;2023-09-07T07:56:30;22.70;99.90
15717;DHT22;7960;50.908;4.204;2023-09-07T07:58:58;22.80;99.90
15717;DHT22;7960;50.908;4.204;2023-09-07T08:01:25;22.90;99.90
15717;DHT22;7960;50.908;4.204;2023-09-07T08:03:52;23.00;99.90
15717;DHT22;7960;50.908;4.204;2023-09-07T08:06:19;23.10;99.90
15717;DHT22;7960;50.908;4.204;2023-09-07T08:08:46;23.20;99.90
15717;DHT22;7960;50.908;4.204;2023-09-07T08:11:13;23.30;99.90
15717;DHT22;7960;50.908;4.204;2023-09-07T08:13:40;23.30;99.90
15717;DHT22;7960;50.908;4.204;2023-09-07T08:16:11;23.30;99.90
15717;DHT22;7960;50.908;4.204;2023-09-07T08:18:38;23.40;99.90
15717;DHT22;7960;50.908;4.204;2023-09-07T08:21:05;23.40;99.80
15717;DHT22;7960;50.908;4.204;2023-09-07T08:23:32;23.50;99.80
15717;DHT22;7960;50.908;4.204;2023-09-07T08:25:59;23.60;99.20
15717;DHT22;7960;50.908;4.204;2023-09-07T08:28:26;23.60;98.50
15717;DHT22;7960;50.908;4.204;2023-09-07T08:30:54;23.80;98.10
15717;DHT22;7960;50.908;4.204;2023-09-07T08:33:23;23.90;98.10
15717;DHT22;7960;50.908;4.204;2023-09-07T08:35:55;24.00;97.90
15717;DHT22;7960;50.908;4.204;2023-09-07T08:38:23;24.00;97.50
15717;DHT22;7960;50.908;4.204;2023-09-07T08:40:54;24.10;97.10
15717;DHT22;7960;50.908;4.204;2023-09-07T08:43:21;24.20;97.20
15717;DHT22;7960;50.908;4.204;2023-09-07T08:45:54;24.30;97.00
15717;DHT22;7960;50.908;4.204;2023-09-07T08:48:27;24.40;96.50
15717;DHT22;7960;50.908;4.204;2023-09-07T08:50:55;24.50;96.50
15717;DHT22;7960;50.908;4.204;2023-09-07T08:53:23;24.70;96.10
15717;DHT22;7960;50.908;4.204;2023-09-07T08:55:50;24.70;96.20
15717;DHT22;7960;50.908;4.204;2023-09-07T08:58:18;24.80;96.30
15717;DHT22;7960;50.908;4.204;2023-09-07T09:00:45;25.00;96.10
15717;DHT22;7960;50.908;4.204;2023-09-07T09:03:15;25.30;95.80
15717;DHT22;7960;50.908;4.204;2023-09-07T09:05:43;25.50;95.30
15717;DHT22;7960;50.908;4.204;2023-09-07T09:08:11;25.60;95.40
15717;DHT22;7960;50.908;4.204;2023-09-07T09:10:38;25.70;95.20
15717;DHT22;7960;50.908;4.204;2023-09-07T09:13:06;25.80;94.70
15717;DHT22;7960;50.908;4.204;2023-09-07T09:15:33;26.00;94.50
15717;DHT22;7960;50.908;4.204;2023-09-07T09:18:09;26.30;94.40
15717;DHT22;7960;50.908;4.204;2023-09-07T09:20:37;26.40;93.80
15717;DHT22;7960;50.908;4.204;2023-09-07T09:23:06;26.60;93.50
15717;DHT22;7960;50.908;4.204;2023-09-07T09:25:33;26.70;93.20
15717;DHT22;7960;50.908;4.204;2023-09-07T09:28:00;26.80;93.10
15717;DHT22;7960;50.908;4.204;2023-09-07T09:30:27;26.90;93.20
15717;DHT22;7960;50.908;4.204;2023-09-07T09:32:55;27.10;92.80
15717;DHT22;7960;50.908;4.204;2023-09-07T09:35:22;27.30;92.50
15717;DHT22;7960;50.908;4.204;2023-09-07T09:37:50;27.40;92.00
15717;DHT22;7960;50.908;4.204;2023-09-07T09:40:18;27.60;91.40
15717;DHT22;7960;50.908;4.204;2023-09-07T09:42:46;27.80;91.20
15717;DHT22;7960;50.908;4.204;2023-09-07T09:45:17;27.90;90.90
15717;DHT22;7960;50.908;4.204;2023-09-07T09:47:44;27.80;90.50
15717;DHT22;7960;50.908;4.204;2023-09-07T09:50:11;28.00;90.20
15717;DHT22;7960;50.908;4.204;2023-09-07T09:52:39;28.00;89.70
15717;DHT22;7960;50.908;4.204;2023-09-07T09:55:08;28.10;89.20
15717;DHT22;7960;50.908;4.204;2023-09-07T09:57:39;28.10;88.00
15717;DHT22;7960;50.908;4.204;2023-09-07T10:00:08;28.10;88.20
15717;DHT22;7960;50.908;4.204;2023-09-07T10:02:55;28.20;87.20
15717;DHT22;7960;50.908;4.204;2023-09-07T10:05:25;28.30;85.90
15717;DHT22;7960;50.908;4.204;2023-09-07T10:07:52;28.40;85.40
15717;DHT22;7960;50.908;4.204;2023-09-07T10:10:20;28.50;84.50
15717;DHT22;7960;50.908;4.204;2023-09-07T10:12:53;28.60;84.00
15717;DHT22;7960;50.908;4.204;2023-09-07T10:15:21;28.50;82.70
15717;DHT22;7960;50.908;4.204;2023-09-07T10:17:48;28.30;83.20
15717;DHT22;7960;50.908;4.204;2023-09-07T10:20:19;28.50;83.00
15717;DHT22;7960;50.908;4.204;2023-09-07T10:22:48;28.80;82.00
15717;DHT22;7960;50.908;4.204;2023-09-07T10:25:19;28.80;81.00
15717;DHT22;7960;50.908;4.204;2023-09-07T10:27:46;28.90;82.10
15717;DHT22;7960;50.908;4.204;2023-09-07T10:30:15;28.90;82.10
15717;DHT22;7960;50.908;4.204;2023-09-07T10:32:45;29.00;81.90
15717;DHT22;7960;50.908;4.204;2023-09-07T10:35:14;29.00;80.70
15717;DHT22;7960;50.908;4.204;2023-09-07T10:37:44;29.10;80.60
15717;DHT22;7960;50.908;4.204;2023-09-07T10:40:11;28.90;78.80
15717;DHT22;7960;50.908;4.204;2023-09-07T10:42:40;29.00;80.20
15717;DHT22;7960;50.908;4.204;2023-09-07T10:45:11;29.00;79.50
15717;DHT22;7960;50.908;4.204;2023-09-07T10:47:42;29.10;80.60
15717;DHT22;7960;50.908;4.204;2023-09-07T10:50:11;29.10;80.00
15717;DHT22;7960;50.908;4.204;2023-09-07T10:52:40;29.00;78.90
15717;DHT22;7960;50.908;4.204;2023-09-07T10:55:08;29.10;79.20
15717;DHT22;7960;50.908;4.204;2023-09-07T10:57:41;29.20;79.80
15717;DHT22;7960;50.908;4.204;2023-09-07T11:00:10;29.40;80.70
15717;DHT22;7960;50.908;4.204;2023-09-07T11:02:37;29.70;80.00
15717;DHT22;7960;50.908;4.204;2023-09-07T11:05:07;29.70;79.00
15717;DHT22;7960;50.908;4.204;2023-09-07T11:07:34;29.60;77.30
15717;DHT22;7960;50.908;4.204;2023-09-07T11:10:05;29.60;77.00
15717;DHT22;7960;50.908;4.204;2023-09-07T11:12:36;29.50;77.20
15717;DHT22;7960;50.908;4.204;2023-09-07T11:15:04;29.40;77.20
15717;DHT22;7960;50.908;4.204;2023-09-07T11:17:31;29.40;77.00
15717;DHT22;7960;50.908;4.204;2023-09-07T11:19:58;29.60;78.50
15717;DHT22;7960;50.908;4.204;2023-09-07T11:22:26;29.60;76.70
15717;DHT22;7960;50.908;4.204;2023-09-07T11:24:53;29.70;75.80
15717;DHT22;7960;50.908;4.204;2023-09-07T11:27:21;29.80;75.90
15717;DHT22;7960;50.908;4.204;2023-09-07T11:29:52;30.00;76.20
15717;DHT22;7960;50.908;4.204;2023-09-07T11:32:19;30.10;76.70
15717;DHT22;7960;50.908;4.204;2023-09-07T11:34:48;30.00;76.40
15717;DHT22;7960;50.908;4.204;2023-09-07T11:37:16;30.10;75.30
15717;DHT22;7960;50.908;4.204;2023-09-07T11:39:44;30.20;75.30
15717;DHT22;7960;50.908;4.204;2023-09-07T11:42:11;30.30;74.60
15717;DHT22;7960;50.908;4.204;2023-09-07T11:44:38;30.30;75.70
15717;DHT22;7960;50.908;4.204;2023-09-07T11:47:05;30.50;74.90
15717;DHT22;7960;50.908;4.204;2023-09-07T11:49:32;30.50;74.90
15717;DHT22;7960;50.908;4.204;2023-09-07T11:51:59;30.40;74.80
15717;DHT22;7960;50.908;4.204;2023-09-07T11:54:26;30.10;74.60
15717;DHT22;7960;50.908;4.204;2023-09-07T11:56:56;30.30;75.80
15717;DHT22;7960;50.908;4.204;2023-09-07T11:59:23;30.60;74.50
15717;DHT22;7960;50.908;4.204;2023-09-07T12:01:50;30.70;74.30
15717;DHT22;7960;50.908;4.204;2023-09-07T12:04:17;30.60;74.00
15717;DHT22;7960;50.908;4.204;2023-09-07T12:06:44;30.60;72.50
15717;DHT22;7960;50.908;4.204;2023-09-07T12:09:11;30.60;72.40
15717;DHT22;7960;50.908;4.204;2023-09-07T12:11:39;30.60;72.50
15717;DHT22;7960;50.908;4.204;2023-09-07T12:14:08;30.80;72.10
15717;DHT22;7960;50.908;4.204;2023-09-07T12:16:36;30.80;71.90
15717;DHT22;7960;50.908;4.204;2023-09-07T12:19:02;30.80;72.20
15717;DHT22;7960;50.908;4.204;2023-09-07T12:21:31;30.90;73.50
15717;DHT22;7960;50.908;4.204;2023-09-07T12:23:56;31.20;73.30
15717;DHT22;7960;50.908;4.204;2023-09-07T12:26:23;31.20;70.20
15717;DHT22;7960;50.908;4.204;2023-09-07T12:28:51;30.90;71.10
15717;DHT22;7960;50.908;4.204;2023-09-07T12:31:19;31.10;69.80
15717;DHT22;7960;50.908;4.204;2023-09-07T12:33:46;31.10;69.10
15717;DHT22;7960;50.908;4.204;2023-09-07T12:36:13;31.20;68.90
15717;DHT22;7960;50.908;4.204;2023-09-07T12:38:40;31.10;66.20
15717;DHT22;7960;50.908;4.204;2023-09-07T12:41:07;31.10;66.50
15717;DHT22;7960;50.908;4.204;2023-09-07T12:43:35;31.20;66.60
15717;DHT22;7960;50.908;4.204;2023-09-07T12:46:02;31.60;66.60
15717;DHT22;7960;50.908;4.204;2023-09-07T12:48:31;31.70;66.00
15717;DHT22;7960;50.908;4.204;2023-09-07T12:50:59;32.00;65.30
15717;DHT22;7960;50.908;4.204;2023-09-07T12:53:25;32.00;65.40
15717;DHT22;7960;50.908;4.204;2023-09-07T12:55:53;31.60;64.80
15717;DHT22;7960;50.908;4.204;2023-09-07T12:58:20;31.50;65.10
15717;DHT22;7960;50.908;4.204;2023-09-07T13:00:47;31.50;64.30
15717;DHT22;7960;50.908;4.204;2023-09-07T13:03:16;31.60;65.60
15717;DHT22;7960;50.908;4.204;2023-09-07T13:05:45;31.80;65.40
15717;DHT22;7960;50.908;4.204;2023-09-07T13:08:12;32.00;65.30
15717;DHT22;7960;50.908;4.204;2023-09-07T13:10:39;31.70;64.30
15717;DHT22;7960;50.908;4.204;2023-09-07T13:13:06;31.80;65.10
15717;DHT22;7960;50.908;4.204;2023-09-07T13:15:34;31.90;64.00
15717;DHT22;7960;50.908;4.204;2023-09-07T13:18:01;31.90;63.60
15717;DHT22;7960;50.908;4.204;2023-09-07T13:20:28;31.70;64.30
15717;DHT22;7960;50.908;4.204;2023-09-07T13:22:56;32.30;63.80
15717;DHT22;7960;50.908;4.204;2023-09-07T13:25:23;32.80;61.10
15717;DHT22;7960;50.908;4.204;2023-09-07T13:27:51;32.50;59.80
15717;DHT22;7960;50.908;4.204;2023-09-07T13:30:18;32.50;60.60
15717;DHT22;7960;50.908;4.204;2023-09-07T13:32:45;32.90;61.00
15717;DHT22;7960;50.908;4.204;2023-09-07T13:35:12;32.90;59.00
15717;DHT22;7960;50.908;4.204;2023-09-07T13:37:39;33.20;59.00
15717;DHT22;7960;50.908;4.204;2023-09-07T13:40:08;33.30;58.40
15717;DHT22;7960;50.908;4.204;2023-09-07T13:42:36;33.30;59.00
15717;DHT22;7960;50.908;4.204;2023-09-07T13:45:05;33.40;56.30
15717;DHT22;7960;50.908;4.204;2023-09-07T13:47:32;33.70;56.50
15717;DHT22;7960;50.908;4.204;2023-09-07T13:49:59;34.00;55.20
15717;DHT22;7960;50.908;4.204;2023-09-07T13:52:26;33.80;53.60
15717;DHT22;7960;50.908;4.204;2023-09-07T13:54:53;33.80;54.70
15717;DHT22;7960;50.908;4.204;2023-09-07T13:57:21;33.90;54.50
15717;DHT22;7960;50.908;4.204;2023-09-07T13:59:49;33.90;53.20
15717;DHT22;7960;50.908;4.204;2023-09-07T14:02:16;33.80;52.50
15717;DHT22;7960;50.908;4.204;2023-09-07T14:04:43;34.10;52.70
15717;DHT22;7960;50.908;4.204;2023-09-07T14:07:10;34.40;52.60
15717;DHT22;7960;50.908;4.204;2023-09-07T14:09:37;34.60;53.40
15717;DHT22;7960;50.908;4.204;2023-09-07T14:12:04;34.70;51.20
15717;DHT22;7960;50.908;4.204;2023-09-07T14:14:33;34.80;50.60
15717;DHT22;7960;50.908;4.204;2023-09-07T14:17:00;34.90;51.70
15717;DHT22;7960;50.908;4.204;2023-09-07T14:19:27;34.80;51.90
15717;DHT22;7960;50.908;4.204;2023-09-07T14:21:56;35.00;52.40
15717;DHT22;7960;50.908;4.204;2023-09-07T14:24:23;35.10;51.60
15717;DHT22;7960;50.908;4.204;2023-09-07T14:26:51;34.60;51.60
15717;DHT22;7960;50.908;4.204;2023-09-07T14:29:17;34.50;52.20
15717;DHT22;7960;50.908;4.204;2023-09-07T14:31:45;34.40;52.60
15717;DHT22;7960;50.908;4.204;2023-09-07T14:34:12;34.60;52.30
15717;DHT22;7960;50.908;4.204;2023-09-07T14:36:39;34.70;52.30
15717;DHT22;7960;50.908;4.204;2023-09-07T14:39:07;34.80;52.30
15717;DHT22;7960;50.908;4.204;2023-09-07T14:41:35;35.00;51.50
15717;DHT22;7960;50.908;4.204;2023-09-07T14:44:02;35.10;51.30
15717;DHT22;7960;50.908;4.204;2023-09-07T14:46:29;35.50;51.70
15717;DHT22;7960;50.908;4.204;2023-09-07T14:48:57;35.50;50.70
15717;DHT22;7960;50.908;4.204;2023-09-07T14:51:24;35.00;50.50
15717;DHT22;7960;50.908;4.204;2023-09-07T14:53:52;34.70;51.40
15717;DHT22;7960;50.908;4.204;2023-09-07T14:56:19;35.10;52.00
15717;DHT22;7960;50.908;4.204;2023-09-07T14:58:48;35.30;52.30
15717;DHT22;7960;50.908;4.204;2023-09-07T15:01:20;35.10;52.20
15717;DHT22;7960;50.908;4.204;2023-09-07T15:03:47;35.10;51.40
15717;DHT22;7960;50.908;4.204;2023-09-07T15:06:16;35.30;50.10
15717;DHT22;7960;50.908;4.204;2023-09-07T15:08:44;35.40;50.30
15717;DHT22;7960;50.908;4.204;2023-09-07T15:11:11;35.20;50.90
15717;DHT22;7960;50.908;4.204;2023-09-07T15:13:38;35.30;50.80
15717;DHT22;7960;50.908;4.204;2023-09-07T15:16:06;35.30;50.70
15717;DHT22;7960;50.908;4.204;2023-09-07T15:18:33;35.20;52.40
15717;DHT22;7960;50.908;4.204;2023-09-07T15:21:00;35.10;52.40
15717;DHT22;7960;50.908;4.204;2023-09-07T15:23:29;35.10;51.70
15717;DHT22;7960;50.908;4.204;2023-09-07T15:25:56;35.20;51.80
15717;DHT22;7960;50.908;4.204;2023-09-07T15:28:23;35.10;51.30
15717;DHT22;7960;50.908;4.204;2023-09-07T15:30:50;35.10;52.50
15717;DHT22;7960;50.908;4.204;2023-09-07T15:33:17;34.90;52.40
15717;DHT22;7960;50.908;4.204;2023-09-07T15:35:45;35.00;53.50
15717;DHT22;7960;50.908;4.204;2023-09-07T15:38:12;35.60;53.50
15717;DHT22;7960;50.908;4.204;2023-09-07T15:40:40;35.80;53.00
15717;DHT22;7960;50.908;4.204;2023-09-07T15:43:10;35.40;53.10
15717;DHT22;7960;50.908;4.204;2023-09-07T15:45:37;34.70;52.50
15717;DHT22;7960;50.908;4.204;2023-09-07T15:48:05;33.90;55.10